createdAt,value
2017-11-07T00:01:54.436Z,5.40
2017-11-07T00:04:21.548Z,5.40
2017-11-07T00:06:47.941Z,5.40
2017-11-07T00:09:16.091Z,5.40
2017-11-07T00:11:42.609Z,5.40
2017-11-07T00:14:09.035Z,5.40
2017-11-07T00:16:35.371Z,5.40
2017-11-07T00:19:01.708Z,5.40
2017-11-07T00:21:28.055Z,5.40
2017-11-07T00:23:54.387Z,5.40
2017-11-07T00:26:20.803Z,5.40
2017-11-07T00:28:47.141Z,5.50
2017-11-07T00:31:13.476Z,5.50
2017-11-07T00:33:39.827Z,5.50
2017-11-07T00:36:06.192Z,5.40
2017-11-07T00:38:32.554Z,5.40
2017-11-07T00:40:58.934Z,5.30
2017-11-07T00:43:27.043Z,5.30
2017-11-07T00:45:54.205Z,5.30
2017-11-07T00:48:20.555Z,5.30
2017-11-07T00:50:46.915Z,5.40
2017-11-07T00:53:13.235Z,5.40
2017-11-07T00:55:39.568Z,5.40
2017-11-07T00:58:05.920Z,5.40
2017-11-07T01:00:32.240Z,5.40
2017-11-07T01:02:58.598Z,5.40
2017-11-07T01:05:25.719Z,5.30
2017-11-07T01:07:52.050Z,5.30
2017-11-07T01:10:18.431Z,5.30
2017-11-07T01:12:44.767Z,5.30
2017-11-07T01:15:11.115Z,5.40
2017-11-07T01:17:37.471Z,5.40
2017-11-07T01:20:03.814Z,5.40
2017-11-07T01:22:30.139Z,5.40
2017-11-07T01:24:56.483Z,5.40
2017-11-07T01:27:23.738Z,5.30
2017-11-07T01:29:50.076Z,5.30
2017-11-07T01:32:17.192Z,5.40
2017-11-07T01:34:43.567Z,5.30
2017-11-07T01:37:10.667Z,5.40
2017-11-07T01:39:37.006Z,5.40
2017-11-07T01:42:03.395Z,5.30
2017-11-07T01:44:30.488Z,5.30
2017-11-07T01:46:56.867Z,5.30
2017-11-07T01:49:23.969Z,5.30
2017-11-07T01:51:50.338Z,5.20
2017-11-07T01:54:16.707Z,5.20
2017-11-07T01:56:43.084Z,5.20
2017-11-07T01:59:09.496Z,5.20
2017-11-07T02:01:35.907Z,5.30
2017-11-07T02:04:02.295Z,5.20
2017-11-07T02:06:28.685Z,5.20
2017-11-07T02:08:55.039Z,5.20
2017-11-07T02:11:21.416Z,5.30
2017-11-07T02:13:48.523Z,5.50
2017-11-07T02:16:14.887Z,5.50
2017-11-07T02:18:42.114Z,5.60
2017-11-07T02:21:08.482Z,5.60
2017-11-07T02:23:35.599Z,5.40
2017-11-07T02:26:01.992Z,5.40
2017-11-07T02:28:28.339Z,5.40
2017-11-07T02:30:55.435Z,5.40
2017-11-07T02:33:22.575Z,5.50
2017-11-07T02:35:48.967Z,5.50
2017-11-07T02:38:15.365Z,5.50
2017-11-07T02:40:41.811Z,5.50
2017-11-07T02:43:08.159Z,5.50
2017-11-07T02:45:34.546Z,5.50
2017-11-07T02:48:00.923Z,5.60
2017-11-07T02:50:27.279Z,5.70
2017-11-07T02:52:53.612Z,5.70
2017-11-07T02:55:19.948Z,5.70
2017-11-07T02:57:46.535Z,5.60
2017-11-07T03:00:12.887Z,5.60
2017-11-07T03:02:39.242Z,5.60
2017-11-07T03:05:05.582Z,5.60
2017-11-07T03:07:31.931Z,5.60
2017-11-07T03:09:58.290Z,5.60
2017-11-07T03:12:25.368Z,5.70
2017-11-07T03:14:51.708Z,5.70
2017-11-07T03:17:18.043Z,5.70
2017-11-07T03:19:44.607Z,5.70
2017-11-07T03:22:10.970Z,5.70
2017-11-07T03:24:38.062Z,5.80
2017-11-07T03:27:04.404Z,5.80
2017-11-07T03:29:30.748Z,5.80
2017-11-07T03:31:57.074Z,5.80
2017-11-07T03:34:23.421Z,5.80
2017-11-07T03:36:49.811Z,5.80
2017-11-07T03:39:16.171Z,5.70
2017-11-07T03:41:42.563Z,5.80
2017-11-07T03:44:08.928Z,5.70
2017-11-07T03:46:35.301Z,5.80
2017-11-07T03:49:02.402Z,5.80
2017-11-07T03:51:28.813Z,5.80
2017-11-07T03:53:55.135Z,5.80
2017-11-07T03:56:21.479Z,5.60
2017-11-07T03:58:47.842Z,5.70
2017-11-07T04:01:14.172Z,5.70
2017-11-07T04:03:40.531Z,5.70
2017-11-07T04:06:07.906Z,5.80
2017-11-07T04:08:34.278Z,5.80
2017-11-07T04:11:00.635Z,5.80
2017-11-07T04:13:27.834Z,5.80
2017-11-07T04:15:54.158Z,5.80
2017-11-07T04:18:21.267Z,5.60
2017-11-07T04:20:47.608Z,5.60
2017-11-07T04:23:13.939Z,5.70
2017-11-07T04:25:41.024Z,5.60
2017-11-07T04:28:07.380Z,5.60
2017-11-07T04:30:33.707Z,5.70
2017-11-07T04:33:00.062Z,5.80
2017-11-07T04:35:26.395Z,5.70
2017-11-07T04:37:52.765Z,5.70
2017-11-07T04:40:19.899Z,5.70
2017-11-07T04:42:46.218Z,5.70
2017-11-07T04:45:12.579Z,5.60
2017-11-07T04:47:39.676Z,5.60
2017-11-07T04:50:06.032Z,5.60
2017-11-07T04:52:32.355Z,5.70
2017-11-07T04:54:58.702Z,5.60
2017-11-07T04:57:25.044Z,5.70
2017-11-07T04:59:51.394Z,5.70
2017-11-07T05:02:18.481Z,5.60
2017-11-07T05:04:44.842Z,5.50
2017-11-07T05:07:11.208Z,5.50
2017-11-07T05:09:38.316Z,5.60
2017-11-07T05:12:04.686Z,5.50
2017-11-07T05:14:31.754Z,5.50
2017-11-07T05:16:58.123Z,5.50
2017-11-07T05:19:24.491Z,5.40
2017-11-07T05:21:51.588Z,5.50
2017-11-07T05:24:17.943Z,5.50
2017-11-07T05:26:44.302Z,5.50
2017-11-07T05:29:10.674Z,5.60
2017-11-07T05:31:37.013Z,5.60
2017-11-07T05:34:03.364Z,5.60
2017-11-07T05:36:29.747Z,5.60
2017-11-07T05:38:56.817Z,5.50
2017-11-07T05:41:23.175Z,5.50
2017-11-07T05:43:49.875Z,5.50
2017-11-07T05:46:17.013Z,5.40
2017-11-07T05:48:44.167Z,5.40
2017-11-07T05:51:11.304Z,5.30
2017-11-07T05:53:37.651Z,5.30
2017-11-07T05:56:04.739Z,5.40
2017-11-07T05:58:31.094Z,5.30
2017-11-07T06:00:57.530Z,5.40
2017-11-07T06:03:23.879Z,5.40
2017-11-07T06:05:50.543Z,5.40
2017-11-07T06:08:17.628Z,5.40
2017-11-07T06:10:44.004Z,5.40
2017-11-07T06:13:10.358Z,5.40
2017-11-07T06:15:37.435Z,5.40
2017-11-07T06:18:03.800Z,5.40
2017-11-07T06:20:31.133Z,5.40
2017-11-07T06:22:57.491Z,5.50
2017-11-07T06:25:23.848Z,5.40
2017-11-07T06:27:50.936Z,5.40
2017-11-07T06:30:18.316Z,5.40
2017-11-07T06:32:44.667Z,5.40
2017-11-07T06:35:11.003Z,5.50
2017-11-07T06:37:37.352Z,5.50
2017-11-07T06:40:03.739Z,5.40
2017-11-07T06:42:30.112Z,5.50
2017-11-07T06:44:57.226Z,5.40
2017-11-07T06:47:23.588Z,5.40
2017-11-07T06:49:50.711Z,5.50
2017-11-07T06:52:17.038Z,5.50
2017-11-07T06:54:43.381Z,5.40
2017-11-07T06:57:09.771Z,5.50
2017-11-07T06:59:36.138Z,5.50
2017-11-07T07:02:02.516Z,5.50
2017-11-07T07:04:29.619Z,5.60
2017-11-07T07:06:55.957Z,5.60
2017-11-07T07:09:22.357Z,5.50
2017-11-07T07:11:48.671Z,5.30
2017-11-07T07:14:14.995Z,5.40
2017-11-07T07:16:42.173Z,5.30
2017-11-07T07:19:08.506Z,5.30
2017-11-07T07:21:34.836Z,5.20
2017-11-07T07:24:01.931Z,5.20
2017-11-07T07:26:28.278Z,5.20
2017-11-07T07:28:55.346Z,5.40
2017-11-07T07:31:21.688Z,5.30
2017-11-07T07:33:48.028Z,5.30
2017-11-07T07:36:14.397Z,5.50
2017-11-07T07:38:40.763Z,5.40
2017-11-07T07:41:07.835Z,5.50
2017-11-07T07:43:34.187Z,5.50
2017-11-07T07:46:00.522Z,5.40
2017-11-07T07:48:26.847Z,5.40
2017-11-07T07:50:53.189Z,5.40
2017-11-07T07:53:19.556Z,5.50
2017-11-07T07:55:45.875Z,5.50
2017-11-07T07:58:12.216Z,5.50
2017-11-07T08:00:39.358Z,5.60
2017-11-07T08:03:05.782Z,5.60
2017-11-07T08:05:32.155Z,5.70
2017-11-07T08:07:59.341Z,5.60
2017-11-07T08:10:25.723Z,5.60
2017-11-07T08:12:52.832Z,5.60
2017-11-07T08:15:19.223Z,5.50
2017-11-07T08:17:46.350Z,5.70
2017-11-07T08:20:12.714Z,5.70
2017-11-07T08:22:39.067Z,5.70
2017-11-07T08:25:05.386Z,5.60
2017-11-07T08:27:31.748Z,5.50
2017-11-07T08:29:58.103Z,5.60
2017-11-07T08:32:24.447Z,5.70
2017-11-07T08:34:51.685Z,5.70
2017-11-07T08:37:18.031Z,5.70
2017-11-07T08:39:44.392Z,5.70
2017-11-07T08:42:10.731Z,5.80
2017-11-07T08:44:37.203Z,5.80
2017-11-07T08:47:03.537Z,5.70
2017-11-07T08:49:29.883Z,5.70
2017-11-07T08:51:56.228Z,5.70
2017-11-07T08:54:23.331Z,5.70
2017-11-07T08:56:49.675Z,5.70
2017-11-07T08:59:16.020Z,5.60
2017-11-07T09:01:42.384Z,5.60
2017-11-07T09:04:09.474Z,5.80
2017-11-07T09:06:35.832Z,5.80
2017-11-07T09:09:02.235Z,5.70
2017-11-07T09:11:28.615Z,5.60
2017-11-07T09:13:55.028Z,5.70
2017-11-07T09:16:21.388Z,5.70
2017-11-07T09:18:48.515Z,5.80
2017-11-07T09:21:14.887Z,5.80
2017-11-07T09:23:42.024Z,5.60
2017-11-07T09:26:09.141Z,5.70
2017-11-07T09:28:35.501Z,5.70
2017-11-07T09:31:01.855Z,5.90
2017-11-07T09:33:28.949Z,5.90
2017-11-07T09:35:55.283Z,5.80
2017-11-07T09:38:21.606Z,5.90
2017-11-07T09:40:48.060Z,5.90
2017-11-07T09:43:14.379Z,5.80
2017-11-07T09:45:40.730Z,5.80
2017-11-07T09:48:07.095Z,5.90
2017-11-07T09:50:34.161Z,5.90
2017-11-07T09:53:00.513Z,5.80
2017-11-07T09:55:26.883Z,5.90
2017-11-07T09:57:53.224Z,6.10
2017-11-07T10:00:20.326Z,6.20
2017-11-07T10:02:52.500Z,6.20
2017-11-07T10:05:18.851Z,6.10
2017-11-07T10:07:46.218Z,6.20
2017-11-07T10:10:12.547Z,6.20
2017-11-07T10:12:38.911Z,6.20
2017-11-07T10:15:05.255Z,6.20
2017-11-07T10:17:31.653Z,6.10
2017-11-07T10:19:57.976Z,5.90
2017-11-07T10:22:24.360Z,6.10
2017-11-07T10:24:50.769Z,6.00
2017-11-07T10:27:17.884Z,5.90
2017-11-07T10:29:44.271Z,5.90
2017-11-07T10:32:10.637Z,6.10
2017-11-07T10:34:37.011Z,6.10
2017-11-07T10:37:04.123Z,6.10
2017-11-07T10:39:30.496Z,6.10
2017-11-07T10:41:57.587Z,6.10
2017-11-07T10:44:23.967Z,6.00
2017-11-07T10:46:51.043Z,6.00
2017-11-07T10:49:17.425Z,6.00
2017-11-07T10:51:43.804Z,6.10
2017-11-07T10:54:10.172Z,6.10
2017-11-07T10:56:36.567Z,6.10
2017-11-07T10:59:03.702Z,6.20
2017-11-07T11:01:30.799Z,6.20
2017-11-07T11:03:57.131Z,6.10
2017-11-07T11:06:24.247Z,6.20
2017-11-07T11:08:51.358Z,6.20
2017-11-07T11:11:17.708Z,6.10
2017-11-07T11:13:44.911Z,6.20
2017-11-07T11:16:11.251Z,6.10
2017-11-07T11:18:37.593Z,6.10
2017-11-07T11:21:03.991Z,6.20
2017-11-07T11:23:31.108Z,6.10
2017-11-07T11:25:57.498Z,6.00
2017-11-07T11:28:23.852Z,6.10
2017-11-07T11:30:50.207Z,6.00
2017-11-07T11:33:17.291Z,6.10
2017-11-07T11:35:43.636Z,6.10
2017-11-07T11:38:10.003Z,6.20
2017-11-07T11:40:36.359Z,6.10
2017-11-07T11:43:04.454Z,6.00
2017-11-07T11:45:30.904Z,5.90
2017-11-07T11:47:57.247Z,6.00
2017-11-07T11:50:23.635Z,5.90
2017-11-07T11:52:49.985Z,5.90
2017-11-07T11:55:16.360Z,6.00
2017-11-07T11:57:42.746Z,6.00
2017-11-07T12:00:10.170Z,6.10
2017-11-07T12:02:36.514Z,6.10
2017-11-07T12:05:03.664Z,6.30
2017-11-07T12:07:30.776Z,6.30
2017-11-07T12:09:57.132Z,6.30
2017-11-07T12:12:23.530Z,6.30
2017-11-07T12:14:49.902Z,6.20
2017-11-07T12:17:16.262Z,6.30
2017-11-07T12:19:43.402Z,6.50
2017-11-07T12:22:10.527Z,6.50
2017-11-07T12:24:36.884Z,6.40
2017-11-07T12:27:03.992Z,6.60
2017-11-07T12:29:30.358Z,6.60
2017-11-07T12:31:57.446Z,6.80
2017-11-07T12:34:23.812Z,6.70
2017-11-07T12:36:50.187Z,6.80
2017-11-07T12:39:17.254Z,6.60
2017-11-07T12:41:43.618Z,6.60
2017-11-07T12:44:09.963Z,6.60
2017-11-07T12:46:36.296Z,6.60
2017-11-07T12:49:02.651Z,6.40
2017-11-07T12:51:41.860Z,6.50
2017-11-07T12:54:08.220Z,6.50
2017-11-07T12:56:35.316Z,6.60
2017-11-07T12:59:01.639Z,6.50
2017-11-07T13:01:28.003Z,6.60
2017-11-07T13:03:54.400Z,6.60
2017-11-07T13:06:20.736Z,6.60
2017-11-07T13:08:47.116Z,6.50
2017-11-07T13:11:14.187Z,6.40
2017-11-07T13:13:41.264Z,6.50
2017-11-07T13:16:07.617Z,6.50
2017-11-07T13:18:33.969Z,6.50
2017-11-07T13:21:00.303Z,6.50
2017-11-07T13:23:26.675Z,6.40
2017-11-07T13:25:53.004Z,6.30
2017-11-07T13:28:19.342Z,6.40
2017-11-07T13:30:45.724Z,6.40
2017-11-07T13:33:12.063Z,6.40
2017-11-07T13:35:38.607Z,6.40
2017-11-07T13:38:05.005Z,6.40
2017-11-07T13:40:31.364Z,6.30
2017-11-07T13:42:57.702Z,6.40
2017-11-07T13:45:24.084Z,6.30
2017-11-07T13:47:50.449Z,6.30
2017-11-07T13:50:16.805Z,6.30
2017-11-07T13:52:43.241Z,6.30
2017-11-07T13:55:09.571Z,6.20
2017-11-07T13:57:35.901Z,6.30
2017-11-07T14:00:02.344Z,6.40
2017-11-07T14:02:29.422Z,6.30
2017-11-07T14:04:55.799Z,6.30
2017-11-07T14:07:22.160Z,6.40
2017-11-07T14:09:48.526Z,6.50
2017-11-07T14:12:14.881Z,6.30
2017-11-07T14:14:41.255Z,6.20
2017-11-07T14:17:08.346Z,6.20
2017-11-07T14:19:34.689Z,6.20
2017-11-07T14:22:01.039Z,6.20
2017-11-07T14:24:27.399Z,6.30
2017-11-07T14:26:54.556Z,6.20
2017-11-07T14:29:21.716Z,6.20
2017-11-07T14:31:48.111Z,6.20
2017-11-07T14:34:14.459Z,6.20
2017-11-07T14:36:40.819Z,6.30
2017-11-07T14:39:07.175Z,6.40
2017-11-07T14:41:33.554Z,6.30
2017-11-07T14:43:59.940Z,6.30
2017-11-07T14:46:27.364Z,6.50
2017-11-07T14:48:54.480Z,6.50
2017-11-07T14:51:20.816Z,6.60
2017-11-07T14:53:47.195Z,6.60
2017-11-07T14:56:13.547Z,6.60
2017-11-07T14:58:39.904Z,6.60
2017-11-07T15:01:07.267Z,6.70
2017-11-07T15:03:33.631Z,6.60
2017-11-07T15:06:00.721Z,6.50
2017-11-07T15:08:27.824Z,6.50
2017-11-07T15:10:54.902Z,6.50
2017-11-07T15:13:21.239Z,6.50
2017-11-07T15:15:47.607Z,6.40
2017-11-07T15:18:13.972Z,6.30
2017-11-07T15:20:41.065Z,6.30
2017-11-07T15:23:07.406Z,6.30
2017-11-07T15:25:33.765Z,6.30
2017-11-07T15:28:00.091Z,6.40
2017-11-07T15:30:26.440Z,6.40
2017-11-07T15:32:53.559Z,6.30
2017-11-07T15:35:19.913Z,6.30
2017-11-07T15:37:46.279Z,6.30
2017-11-07T15:40:12.634Z,6.30
2017-11-07T15:42:39.695Z,6.40
2017-11-07T15:45:06.082Z,6.30
2017-11-07T15:47:34.159Z,6.40
2017-11-07T15:50:01.225Z,6.50
2017-11-07T15:52:28.589Z,6.50
2017-11-07T15:54:54.912Z,6.60
2017-11-07T15:57:21.246Z,6.50
2017-11-07T15:59:47.607Z,6.50
2017-11-07T16:02:13.955Z,6.60
2017-11-07T16:04:40.283Z,6.60
2017-11-07T16:07:06.633Z,6.60
2017-11-07T16:09:33.438Z,6.70
2017-11-07T16:11:59.779Z,6.60
2017-11-07T16:14:26.163Z,6.60
2017-11-07T16:16:52.508Z,6.70
2017-11-07T16:19:18.854Z,6.70
2017-11-07T16:21:45.228Z,6.60
2017-11-07T16:24:11.560Z,6.50
2017-11-07T16:26:37.900Z,6.50
2017-11-07T16:29:05.019Z,6.50
2017-11-07T16:31:31.366Z,6.50
2017-11-07T16:33:57.728Z,6.50
2017-11-07T16:36:24.831Z,6.30
2017-11-07T16:38:51.156Z,6.30
2017-11-07T16:41:17.498Z,6.40
2017-11-07T16:43:43.843Z,6.30
2017-11-07T16:46:10.167Z,6.30
2017-11-07T16:48:36.503Z,6.50
2017-11-07T16:51:02.851Z,6.40
2017-11-07T16:53:29.174Z,6.50
2017-11-07T16:55:55.505Z,6.40
2017-11-07T16:58:21.865Z,6.50
2017-11-07T17:00:48.987Z,6.50
2017-11-07T17:03:16.072Z,6.60
2017-11-07T17:05:43.171Z,6.60
2017-11-07T17:08:09.518Z,6.60
2017-11-07T17:10:35.873Z,6.50
2017-11-07T17:13:02.956Z,6.40
2017-11-07T17:15:30.319Z,6.40
2017-11-07T17:17:56.647Z,6.50
2017-11-07T17:20:23.027Z,6.50
2017-11-07T17:22:50.112Z,6.50
2017-11-07T17:25:16.431Z,6.50
2017-11-07T17:27:43.519Z,6.50
2017-11-07T17:30:09.868Z,6.40
2017-11-07T17:32:36.196Z,6.50
2017-11-07T17:35:02.623Z,6.50
2017-11-07T17:37:28.960Z,6.40
2017-11-07T17:39:56.342Z,6.30
2017-11-07T17:42:22.711Z,6.40
2017-11-07T17:44:49.054Z,6.50
2017-11-07T17:47:15.380Z,6.50
2017-11-07T17:49:41.732Z,6.40
2017-11-07T17:52:08.065Z,6.30
2017-11-07T17:54:34.419Z,6.30
2017-11-07T17:57:00.786Z,6.40
2017-11-07T17:59:27.864Z,6.40
2017-11-07T18:01:54.210Z,6.40
2017-11-07T18:04:20.543Z,6.50
2017-11-07T18:06:46.867Z,6.50
2017-11-07T18:09:13.232Z,6.50
2017-11-07T18:11:40.584Z,6.50
2017-11-07T18:14:06.906Z,6.40
2017-11-07T18:16:33.267Z,6.40
2017-11-07T18:18:59.600Z,6.40
2017-11-07T18:21:25.931Z,6.20
2017-11-07T18:23:52.284Z,6.20
2017-11-07T18:26:18.595Z,6.20
2017-11-07T18:28:45.671Z,6.40
2017-11-07T18:31:12.027Z,6.30
2017-11-07T18:33:38.368Z,6.40
2017-11-07T18:36:04.698Z,6.40
2017-11-07T18:38:31.051Z,6.40
2017-11-07T18:40:57.410Z,6.40
2017-11-07T18:43:24.507Z,6.40
2017-11-07T18:45:50.859Z,6.40
2017-11-07T18:48:17.231Z,6.50
2017-11-07T18:50:43.635Z,6.50
2017-11-07T18:53:09.956Z,6.50
2017-11-07T18:55:36.288Z,6.40
2017-11-07T18:58:02.654Z,6.40
2017-11-07T19:00:30.791Z,6.20
2017-11-07T19:02:58.175Z,6.20
2017-11-07T19:05:25.305Z,5.80
2017-11-07T19:07:51.637Z,5.70
2017-11-07T19:10:17.991Z,5.60
2017-11-07T19:12:45.078Z,5.60
2017-11-07T19:15:11.413Z,5.60
2017-11-07T19:17:37.834Z,5.50
2017-11-07T19:20:04.171Z,5.40
2017-11-07T19:22:30.555Z,5.50
2017-11-07T19:24:56.897Z,5.60
2017-11-07T19:27:23.259Z,5.60
2017-11-07T19:29:49.623Z,5.50
2017-11-07T19:32:15.995Z,5.40
2017-11-07T19:34:43.579Z,5.50
2017-11-07T19:37:10.831Z,5.50
2017-11-07T19:39:37.977Z,5.50
2017-11-07T19:42:05.071Z,5.60
2017-11-07T19:44:31.467Z,5.60
2017-11-07T19:46:57.851Z,5.70
2017-11-07T19:49:24.227Z,5.80
2017-11-07T19:51:51.342Z,5.60
2017-11-07T19:54:17.680Z,5.60
2017-11-07T19:56:44.038Z,5.50
2017-11-07T19:59:11.135Z,5.50
2017-11-07T20:01:38.519Z,5.50
2017-11-07T20:04:04.873Z,5.60
2017-11-07T20:06:31.991Z,5.50
2017-11-07T20:08:58.368Z,5.50
2017-11-07T20:11:24.715Z,5.60
2017-11-07T20:13:51.058Z,5.60
2017-11-07T20:16:17.452Z,5.70
2017-11-07T20:18:44.534Z,5.80
2017-11-07T20:21:10.906Z,5.80
2017-11-07T20:23:37.255Z,5.70
2017-11-07T20:26:03.687Z,5.60
2017-11-07T20:28:30.033Z,5.60
2017-11-07T20:30:56.396Z,5.40
2017-11-07T20:33:22.763Z,5.30
2017-11-07T20:35:49.118Z,5.30
2017-11-07T20:38:15.467Z,5.30
2017-11-07T20:40:42.675Z,5.40
2017-11-07T20:43:09.044Z,5.40
2017-11-07T20:45:36.104Z,5.30
2017-11-07T20:48:04.235Z,5.40
2017-11-07T20:50:31.497Z,5.30
2017-11-07T20:52:57.839Z,5.50
2017-11-07T20:55:25.230Z,5.50
2017-11-07T20:57:51.609Z,5.40
2017-11-07T21:00:17.931Z,5.50
2017-11-07T21:02:44.281Z,5.40
2017-11-07T21:05:10.654Z,5.50
2017-11-07T21:07:38.209Z,5.60
2017-11-07T21:10:04.627Z,5.50
2017-11-07T21:12:31.723Z,5.50
2017-11-07T21:14:58.050Z,5.50
2017-11-07T21:17:24.392Z,5.50
2017-11-07T21:19:50.747Z,5.50
2017-11-07T21:22:17.106Z,5.50
2017-11-07T21:24:44.194Z,5.60
2017-11-07T21:27:10.572Z,5.50
2017-11-07T21:29:36.990Z,5.50
2017-11-07T21:32:03.365Z,5.50
2017-11-07T21:34:29.750Z,5.50
2017-11-07T21:36:56.082Z,5.50
2017-11-07T21:39:22.459Z,5.60
2017-11-07T21:41:48.816Z,5.70
2017-11-07T21:44:15.175Z,5.90
2017-11-07T21:46:41.500Z,5.90
2017-11-07T21:49:07.875Z,6.00
2017-11-07T21:51:34.986Z,5.90
2017-11-07T21:54:01.315Z,5.90
2017-11-07T21:56:27.818Z,5.80
2017-11-07T21:58:54.185Z,5.80
2017-11-07T22:01:21.515Z,5.90
2017-11-07T22:03:47.910Z,5.90
2017-11-07T22:06:15.250Z,5.80
2017-11-07T22:08:41.589Z,5.80
2017-11-07T22:11:07.915Z,5.80
2017-11-07T22:13:34.239Z,5.80
2017-11-07T22:16:00.580Z,5.90
2017-11-07T22:18:26.902Z,6.00
2017-11-07T22:20:53.271Z,6.10
2017-11-07T22:23:25.270Z,6.00
2017-11-07T22:25:51.594Z,5.90
2017-11-07T22:28:17.938Z,5.90
2017-11-07T22:30:44.304Z,5.70
2017-11-07T22:33:10.636Z,5.60
2017-11-07T22:35:36.972Z,5.50
2017-11-07T22:38:04.088Z,5.40
2017-11-07T22:40:30.427Z,5.40
2017-11-07T22:42:56.746Z,5.40
2017-11-07T22:45:23.117Z,5.50
2017-11-07T22:47:49.455Z,5.60
2017-11-07T22:50:15.792Z,5.70
2017-11-07T22:52:43.894Z,5.40
2017-11-07T22:55:10.262Z,5.40
2017-11-07T22:57:36.615Z,5.30
2017-11-07T23:00:03.015Z,5.40
2017-11-07T23:02:29.350Z,5.40
2017-11-07T23:04:55.698Z,5.40
2017-11-07T23:07:22.015Z,5.40
2017-11-07T23:09:48.371Z,5.30
2017-11-07T23:12:14.682Z,5.30
2017-11-07T23:14:41.038Z,5.30
2017-11-07T23:17:07.367Z,5.50
2017-11-07T23:19:33.706Z,5.70
2017-11-07T23:22:00.042Z,5.70
2017-11-07T23:24:26.396Z,5.80
2017-11-07T23:26:53.503Z,5.70
2017-11-07T23:29:19.883Z,5.70
2017-11-07T23:31:46.194Z,5.70
2017-11-07T23:34:13.293Z,5.50
2017-11-07T23:36:39.659Z,5.50
2017-11-07T23:39:05.999Z,5.50
2017-11-07T23:41:32.327Z,5.40
2017-11-07T23:43:58.667Z,5.30
2017-11-07T23:46:25.751Z,5.10
2017-11-07T23:48:52.087Z,5.10
2017-11-07T23:51:19.466Z,5.00
2017-11-07T23:53:45.798Z,5.00
2017-11-07T23:56:12.167Z,5.00
2017-11-07T23:58:39.255Z,4.60
